createdAt,value
2022-07-25T00:01:17.038Z,22.13
2022-07-25T00:11:27.258Z,22.05
2022-07-25T00:21:33.943Z,22.08
2022-07-25T00:31:40.361Z,22.01
2022-07-25T00:41:46.743Z,21.96
2022-07-25T00:51:54.521Z,21.92
2022-07-25T01:02:04.012Z,21.91
2022-07-25T01:12:10.695Z,21.86
2022-07-25T01:22:17.049Z,21.84
2022-07-25T01:32:23.510Z,21.76
2022-07-25T01:42:29.978Z,21.76
2022-07-25T01:52:40.807Z,21.74
2022-07-25T02:02:47.292Z,21.74
2022-07-25T02:12:53.613Z,21.68
2022-07-25T02:22:59.971Z,21.53
2022-07-25T02:33:06.281Z,21.43
2022-07-25T02:43:12.625Z,21.42
2022-07-25T02:53:46.810Z,21.38
2022-07-25T03:03:47.825Z,21.27
2022-07-25T03:13:54.183Z,21.29
2022-07-25T03:24:00.662Z,21.26
2022-07-25T03:34:07.706Z,21.20
2022-07-25T03:44:14.739Z,21.01
2022-07-25T03:54:21.290Z,21.30
2022-07-25T04:04:27.629Z,21.28
2022-07-25T04:14:33.950Z,21.13
2022-07-25T04:24:40.360Z,21.18
2022-07-25T04:34:47.073Z,21.04
2022-07-25T04:44:53.392Z,21.26
2022-07-25T04:54:59.765Z,21.37
2022-07-25T05:05:06.599Z,22.48
2022-07-25T05:15:13.613Z,22.77
2022-07-25T05:25:20.406Z,22.88
2022-07-25T05:35:26.751Z,22.28
2022-07-25T05:45:33.481Z,21.78
2022-07-25T05:55:40.828Z,22.53
2022-07-25T06:05:48.071Z,22.55
2022-07-25T06:15:54.443Z,22.35
2022-07-25T06:26:00.825Z,22.90
2022-07-25T06:36:07.960Z,23.53
2022-07-25T06:46:14.354Z,24.03
2022-07-25T06:56:20.687Z,25.16
2022-07-25T07:06:27.100Z,24.48
2022-07-25T07:16:33.480Z,25.93
2022-07-25T07:26:39.877Z,26.21
2022-07-25T07:36:46.257Z,27.36
2022-07-25T07:46:52.957Z,27.73
2022-07-25T07:56:59.391Z,28.61
2022-07-25T08:07:05.735Z,28.65
2022-07-25T08:17:12.811Z,28.45
2022-07-25T08:27:19.252Z,29.87
2022-07-25T08:37:25.618Z,28.55
2022-07-25T08:47:32.008Z,29.92
2022-07-25T08:57:39.513Z,30.65
2022-07-25T09:07:45.803Z,30.24
2022-07-25T09:17:53.275Z,28.83
2022-07-25T09:28:18.820Z,28.58
2022-07-25T09:38:26.081Z,29.78
2022-07-25T09:48:33.648Z,30.54
2022-07-25T09:58:40.009Z,30.51
2022-07-25T10:08:46.436Z,31.71
2022-07-25T10:18:55.032Z,30.49
2022-07-25T10:29:02.862Z,31.76
2022-07-25T10:39:11.599Z,30.49
2022-07-25T10:49:31.017Z,31.69
2022-07-25T10:59:40.036Z,30.70
2022-07-25T11:10:00.351Z,30.96
2022-07-25T11:20:09.095Z,32.17
2022-07-25T11:30:22.990Z,31.87
2022-07-25T11:40:29.482Z,31.52
2022-07-25T11:50:37.487Z,31.65
2022-07-25T12:00:46.017Z,32.55
2022-07-25T12:10:56.859Z,31.24
2022-07-25T12:21:03.152Z,32.11
2022-07-25T12:31:09.724Z,32.73
2022-07-25T12:41:18.026Z,33.43
2022-07-25T12:51:24.690Z,32.76
2022-07-25T13:01:31.056Z,33.26
2022-07-25T13:11:37.443Z,33.14
2022-07-25T13:21:44.778Z,32.61
2022-07-25T13:31:51.143Z,32.73
2022-07-25T13:41:56.483Z,32.41
2022-07-25T13:52:02.830Z,31.64
2022-07-25T14:02:09.358Z,32.04
2022-07-25T14:12:15.957Z,32.33
2022-07-25T14:22:22.327Z,32.77
2022-07-25T14:32:28.990Z,32.38
2022-07-25T14:42:35.356Z,30.81
2022-07-25T14:52:41.739Z,30.93
2022-07-25T15:02:48.097Z,31.00
2022-07-25T15:13:20.467Z,30.39
2022-07-25T15:23:22.110Z,30.87
2022-07-25T15:33:28.474Z,30.31
2022-07-25T15:43:34.882Z,30.32
2022-07-25T15:53:41.311Z,29.57
2022-07-25T16:03:47.757Z,29.69
2022-07-25T16:13:54.977Z,29.56
2022-07-25T16:24:01.314Z,29.36
2022-07-25T16:34:07.672Z,29.12
2022-07-25T16:44:14.059Z,28.79
2022-07-25T16:54:20.437Z,28.38
2022-07-25T17:04:26.816Z,28.12
2022-07-25T17:14:33.173Z,28.04
2022-07-25T17:24:40.586Z,27.83
2022-07-25T17:34:46.930Z,27.54
2022-07-25T17:44:53.782Z,27.23
2022-07-25T17:55:00.230Z,26.84
2022-07-25T18:05:08.194Z,26.49
2022-07-25T18:15:16.132Z,26.50
2022-07-25T18:25:23.837Z,26.36
2022-07-25T18:35:30.400Z,26.21
2022-07-25T18:45:38.453Z,26.13
2022-07-25T18:55:45.785Z,26.05
2022-07-25T19:05:52.142Z,25.62
2022-07-25T19:15:58.532Z,25.25
2022-07-25T19:26:05.563Z,25.32
2022-07-25T19:36:11.860Z,25.04
2022-07-25T19:46:18.277Z,24.99
2022-07-25T19:56:24.665Z,24.58
2022-07-25T20:06:30.974Z,24.62
2022-07-25T20:16:38.639Z,24.54
2022-07-25T20:26:45.125Z,24.39
2022-07-25T20:36:51.447Z,24.35
2022-07-25T20:46:57.794Z,24.20
2022-07-25T20:57:05.074Z,24.01
2022-07-25T21:07:11.634Z,24.00
2022-07-25T21:17:18.742Z,23.96
2022-07-25T21:27:25.054Z,23.80
2022-07-25T21:37:31.386Z,23.90
2022-07-25T21:47:37.701Z,23.75
2022-07-25T21:57:44.415Z,23.69
2022-07-25T22:07:51.074Z,23.56
2022-07-25T22:17:57.413Z,23.48
2022-07-25T22:28:04.843Z,23.31
2022-07-25T22:38:11.552Z,23.23
2022-07-25T22:48:17.873Z,23.28
2022-07-25T22:58:24.270Z,23.27
2022-07-25T23:08:30.595Z,23.09
2022-07-25T23:18:36.975Z,23.21
2022-07-25T23:28:43.411Z,23.13
2022-07-25T23:38:49.773Z,22.66
2022-07-25T23:48:56.634Z,22.34
2022-07-25T23:59:03.287Z,22.66
